sensor_id;sensor_type;location;lat;lon;timestamp;P1;durP1;ratioP1;P2;durP2;ratioP2
23573;SDS011;11965;53.640;10.050;2023-12-22T00:01:54;13.75;;;8.66;;
23573;SDS011;11965;53.640;10.050;2023-12-22T00:04:21;13.31;;;8.37;;
23573;SDS011;11965;53.640;10.050;2023-12-22T00:06:48;12.80;;;8.25;;
23573;SDS011;11965;53.640;10.050;2023-12-22T00:09:17;12.25;;;7.92;;
23573;SDS011;11965;53.640;10.050;2023-12-22T00:11:45;12.69;;;8.18;;
23573;SDS011;11965;53.640;10.050;2023-12-22T00:14:12;13.09;;;8.51;;
23573;SDS011;11965;53.640;10.050;2023-12-22T00:16:40;12.51;;;8.19;;
23573;SDS011;11965;53.640;10.050;2023-12-22T00:19:06;12.98;;;8.33;;
23573;SDS011;11965;53.640;10.050;2023-12-22T00:21:34;12.69;;;8.14;;
23573;SDS011;11965;53.640;10.050;2023-12-22T00:24:01;13.24;;;8.64;;
23573;SDS011;11965;53.640;10.050;2023-12-22T00:26:28;13.85;;;8.92;;
23573;SDS011;11965;53.640;10.050;2023-12-22T00:28:56;14.04;;;9.15;;
23573;SDS011;11965;53.640;10.050;2023-12-22T00:31:23;14.76;;;9.30;;
23573;SDS011;11965;53.640;10.050;2023-12-22T00:33:50;13.86;;;8.79;;
23573;SDS011;11965;53.640;10.050;2023-12-22T00:36:17;13.19;;;8.55;;
23573;SDS011;11965;53.640;10.050;2023-12-22T00:38:48;12.78;;;8.29;;
23573;SDS011;11965;53.640;10.050;2023-12-22T00:41:15;13.71;;;8.77;;
23573;SDS011;11965;53.640;10.050;2023-12-22T00:43:42;13.01;;;8.49;;
23573;SDS011;11965;53.640;10.050;2023-12-22T00:46:10;13.94;;;8.95;;
23573;SDS011;11965;53.640;10.050;2023-12-22T00:48:37;15.01;;;9.31;;
23573;SDS011;11965;53.640;10.050;2023-12-22T00:51:05;13.73;;;8.63;;
23573;SDS011;11965;53.640;10.050;2023-12-22T00:53:32;13.07;;;8.30;;
23573;SDS011;11965;53.640;10.050;2023-12-22T00:55:59;12.51;;;7.93;;
23573;SDS011;11965;53.640;10.050;2023-12-22T00:58:28;12.06;;;7.54;;
23573;SDS011;11965;53.640;10.050;2023-12-22T01:00:55;10.97;;;6.88;;
23573;SDS011;11965;53.640;10.050;2023-12-22T01:03:23;11.44;;;7.25;;
23573;SDS011;11965;53.640;10.050;2023-12-22T01:05:50;11.08;;;7.05;;
23573;SDS011;11965;53.640;10.050;2023-12-22T01:08:17;12.35;;;7.73;;
23573;SDS011;11965;53.640;10.050;2023-12-22T01:10:44;12.40;;;7.93;;
23573;SDS011;11965;53.640;10.050;2023-12-22T01:13:11;13.58;;;8.66;;
23573;SDS011;11965;53.640;10.050;2023-12-22T01:15:38;14.08;;;8.90;;
23573;SDS011;11965;53.640;10.050;2023-12-22T01:18:04;13.91;;;8.83;;
23573;SDS011;11965;53.640;10.050;2023-12-22T01:20:33;15.44;;;9.71;;
23573;SDS011;11965;53.640;10.050;2023-12-22T01:22:59;15.58;;;9.72;;
23573;SDS011;11965;53.640;10.050;2023-12-22T01:25:26;15.42;;;9.67;;
23573;SDS011;11965;53.640;10.050;2023-12-22T01:27:53;13.37;;;8.38;;
23573;SDS011;11965;53.640;10.050;2023-12-22T01:30:20;11.95;;;7.46;;
23573;SDS011;11965;53.640;10.050;2023-12-22T01:32:47;11.36;;;7.19;;
23573;SDS011;11965;53.640;10.050;2023-12-22T01:35:14;10.78;;;6.81;;
23573;SDS011;11965;53.640;10.050;2023-12-22T01:37:42;10.08;;;6.44;;
23573;SDS011;11965;53.640;10.050;2023-12-22T01:40:09;9.24;;;5.84;;
23573;SDS011;11965;53.640;10.050;2023-12-22T01:42:36;8.02;;;5.20;;
23573;SDS011;11965;53.640;10.050;2023-12-22T01:45:04;6.21;;;4.22;;
23573;SDS011;11965;53.640;10.050;2023-12-22T01:47:31;6.73;;;4.52;;
23573;SDS011;11965;53.640;10.050;2023-12-22T01:49:59;6.30;;;4.15;;
23573;SDS011;11965;53.640;10.050;2023-12-22T01:52:27;5.68;;;3.75;;
23573;SDS011;11965;53.640;10.050;2023-12-22T01:54:56;4.72;;;3.13;;
23573;SDS011;11965;53.640;10.050;2023-12-22T01:57:23;5.03;;;3.33;;
23573;SDS011;11965;53.640;10.050;2023-12-22T01:59:51;4.78;;;3.16;;
23573;SDS011;11965;53.640;10.050;2023-12-22T02:02:18;4.03;;;2.72;;
23573;SDS011;11965;53.640;10.050;2023-12-22T02:04:45;3.31;;;2.25;;
23573;SDS011;11965;53.640;10.050;2023-12-22T02:07:13;3.25;;;2.20;;
23573;SDS011;11965;53.640;10.050;2023-12-22T02:09:40;3.57;;;2.43;;
23573;SDS011;11965;53.640;10.050;2023-12-22T02:12:08;3.61;;;2.43;;
23573;SDS011;11965;53.640;10.050;2023-12-22T02:14:35;3.90;;;2.59;;
23573;SDS011;11965;53.640;10.050;2023-12-22T02:17:06;3.87;;;2.56;;
23573;SDS011;11965;53.640;10.050;2023-12-22T02:19:41;3.98;;;2.66;;
23573;SDS011;11965;53.640;10.050;2023-12-22T02:22:10;3.90;;;2.61;;
23573;SDS011;11965;53.640;10.050;2023-12-22T02:24:40;3.85;;;2.54;;
23573;SDS011;11965;53.640;10.050;2023-12-22T02:27:10;4.05;;;2.66;;
23573;SDS011;11965;53.640;10.050;2023-12-22T02:29:52;4.67;;;3.07;;
23573;SDS011;11965;53.640;10.050;2023-12-22T02:32:30;4.98;;;3.29;;
23573;SDS011;11965;53.640;10.050;2023-12-22T02:35:02;4.55;;;2.97;;
23573;SDS011;11965;53.640;10.050;2023-12-22T02:37:32;5.55;;;3.63;;
23573;SDS011;11965;53.640;10.050;2023-12-22T02:40:04;6.17;;;3.99;;
23573;SDS011;11965;53.640;10.050;2023-12-22T02:42:33;5.40;;;3.49;;
23573;SDS011;11965;53.640;10.050;2023-12-22T02:45:03;6.50;;;4.13;;
23573;SDS011;11965;53.640;10.050;2023-12-22T02:47:31;5.85;;;3.73;;
23573;SDS011;11965;53.640;10.050;2023-12-22T02:49:58;6.85;;;4.33;;
23573;SDS011;11965;53.640;10.050;2023-12-22T02:52:25;7.18;;;4.46;;
23573;SDS011;11965;53.640;10.050;2023-12-22T02:54:52;5.99;;;3.86;;
23573;SDS011;11965;53.640;10.050;2023-12-22T02:57:21;6.20;;;3.96;;
23573;SDS011;11965;53.640;10.050;2023-12-22T02:59:48;6.65;;;4.23;;
23573;SDS011;11965;53.640;10.050;2023-12-22T03:02:15;5.75;;;3.68;;
23573;SDS011;11965;53.640;10.050;2023-12-22T03:04:42;5.67;;;3.65;;
23573;SDS011;11965;53.640;10.050;2023-12-22T03:07:09;6.04;;;3.80;;
23573;SDS011;11965;53.640;10.050;2023-12-22T03:09:35;5.00;;;3.17;;
23573;SDS011;11965;53.640;10.050;2023-12-22T03:12:02;4.81;;;2.98;;
23573;SDS011;11965;53.640;10.050;2023-12-22T03:14:31;4.66;;;2.87;;
23573;SDS011;11965;53.640;10.050;2023-12-22T03:16:58;3.77;;;2.35;;
23573;SDS011;11965;53.640;10.050;2023-12-22T03:19:25;3.31;;;2.09;;
23573;SDS011;11965;53.640;10.050;2023-12-22T03:21:52;2.85;;;1.82;;
23573;SDS011;11965;53.640;10.050;2023-12-22T03:24:19;2.39;;;1.54;;
23573;SDS011;11965;53.640;10.050;2023-12-22T03:26:47;2.95;;;1.92;;
23573;SDS011;11965;53.640;10.050;2023-12-22T03:29:13;2.64;;;1.68;;
23573;SDS011;11965;53.640;10.050;2023-12-22T03:31:41;2.82;;;1.80;;
23573;SDS011;11965;53.640;10.050;2023-12-22T03:34:08;3.42;;;2.21;;
23573;SDS011;11965;53.640;10.050;2023-12-22T03:36:35;3.49;;;2.26;;
23573;SDS011;11965;53.640;10.050;2023-12-22T03:39:03;3.45;;;2.23;;
23573;SDS011;11965;53.640;10.050;2023-12-22T03:41:30;3.33;;;2.12;;
23573;SDS011;11965;53.640;10.050;2023-12-22T03:43:57;3.77;;;2.40;;
23573;SDS011;11965;53.640;10.050;2023-12-22T03:46:25;3.99;;;2.52;;
23573;SDS011;11965;53.640;10.050;2023-12-22T03:48:53;4.20;;;2.65;;
23573;SDS011;11965;53.640;10.050;2023-12-22T03:51:20;4.12;;;2.60;;
23573;SDS011;11965;53.640;10.050;2023-12-22T03:53:47;3.95;;;2.49;;
23573;SDS011;11965;53.640;10.050;2023-12-22T03:56:13;4.67;;;2.89;;
23573;SDS011;11965;53.640;10.050;2023-12-22T03:58:40;4.10;;;2.53;;
23573;SDS011;11965;53.640;10.050;2023-12-22T04:01:07;4.17;;;2.57;;
23573;SDS011;11965;53.640;10.050;2023-12-22T04:03:34;4.04;;;2.47;;
23573;SDS011;11965;53.640;10.050;2023-12-22T04:06:03;4.47;;;2.76;;
23573;SDS011;11965;53.640;10.050;2023-12-22T04:08:30;5.42;;;3.36;;
23573;SDS011;11965;53.640;10.050;2023-12-22T04:10:57;5.52;;;3.42;;
23573;SDS011;11965;53.640;10.050;2023-12-22T04:13:24;5.89;;;3.57;;
23573;SDS011;11965;53.640;10.050;2023-12-22T04:15:51;6.77;;;4.07;;
23573;SDS011;11965;53.640;10.050;2023-12-22T04:18:18;6.06;;;3.68;;
23573;SDS011;11965;53.640;10.050;2023-12-22T04:20:45;7.38;;;4.48;;
23573;SDS011;11965;53.640;10.050;2023-12-22T04:23:13;7.61;;;4.56;;
23573;SDS011;11965;53.640;10.050;2023-12-22T04:25:40;9.34;;;5.51;;
23573;SDS011;11965;53.640;10.050;2023-12-22T04:28:07;9.82;;;5.81;;
23573;SDS011;11965;53.640;10.050;2023-12-22T04:30:34;9.48;;;5.70;;
23573;SDS011;11965;53.640;10.050;2023-12-22T04:33:00;8.63;;;5.30;;
23573;SDS011;11965;53.640;10.050;2023-12-22T04:35:27;8.99;;;5.41;;
23573;SDS011;11965;53.640;10.050;2023-12-22T04:37:54;8.78;;;5.22;;
23573;SDS011;11965;53.640;10.050;2023-12-22T04:40:22;9.51;;;5.68;;
23573;SDS011;11965;53.640;10.050;2023-12-22T04:42:49;9.22;;;5.47;;
23573;SDS011;11965;53.640;10.050;2023-12-22T04:45:16;8.25;;;4.92;;
23573;SDS011;11965;53.640;10.050;2023-12-22T04:47:43;8.36;;;5.08;;
23573;SDS011;11965;53.640;10.050;2023-12-22T04:50:10;7.92;;;4.72;;
23573;SDS011;11965;53.640;10.050;2023-12-22T04:52:37;8.38;;;5.04;;
23573;SDS011;11965;53.640;10.050;2023-12-22T04:55:04;7.87;;;4.73;;
23573;SDS011;11965;53.640;10.050;2023-12-22T04:57:32;9.00;;;5.40;;
23573;SDS011;11965;53.640;10.050;2023-12-22T04:59:59;7.71;;;4.59;;
23573;SDS011;11965;53.640;10.050;2023-12-22T05:02:26;8.64;;;5.11;;
23573;SDS011;11965;53.640;10.050;2023-12-22T05:04:54;8.93;;;5.27;;
23573;SDS011;11965;53.640;10.050;2023-12-22T05:07:21;9.06;;;5.40;;
23573;SDS011;11965;53.640;10.050;2023-12-22T05:09:48;9.26;;;5.58;;
23573;SDS011;11965;53.640;10.050;2023-12-22T05:12:15;8.91;;;5.34;;
23573;SDS011;11965;53.640;10.050;2023-12-22T05:14:43;8.93;;;5.35;;
23573;SDS011;11965;53.640;10.050;2023-12-22T05:17:10;8.78;;;5.22;;
23573;SDS011;11965;53.640;10.050;2023-12-22T05:19:37;10.40;;;6.14;;
23573;SDS011;11965;53.640;10.050;2023-12-22T05:22:04;10.39;;;6.14;;
23573;SDS011;11965;53.640;10.050;2023-12-22T05:24:31;8.89;;;5.37;;
23573;SDS011;11965;53.640;10.050;2023-12-22T05:26:58;8.44;;;5.12;;
23573;SDS011;11965;53.640;10.050;2023-12-22T05:29:25;8.12;;;5.00;;
23573;SDS011;11965;53.640;10.050;2023-12-22T05:31:53;7.81;;;4.83;;
23573;SDS011;11965;53.640;10.050;2023-12-22T05:34:20;8.41;;;5.12;;
23573;SDS011;11965;53.640;10.050;2023-12-22T05:36:47;8.38;;;5.10;;
23573;SDS011;11965;53.640;10.050;2023-12-22T05:39:14;8.81;;;5.35;;
23573;SDS011;11965;53.640;10.050;2023-12-22T05:41:41;9.87;;;5.97;;
23573;SDS011;11965;53.640;10.050;2023-12-22T05:44:08;7.78;;;4.71;;
23573;SDS011;11965;53.640;10.050;2023-12-22T05:46:37;8.01;;;4.81;;
23573;SDS011;11965;53.640;10.050;2023-12-22T05:49:05;8.42;;;5.01;;
23573;SDS011;11965;53.640;10.050;2023-12-22T05:51:35;8.12;;;4.87;;
23573;SDS011;11965;53.640;10.050;2023-12-22T05:54:03;8.29;;;4.99;;
23573;SDS011;11965;53.640;10.050;2023-12-22T05:56:31;8.30;;;5.06;;
23573;SDS011;11965;53.640;10.050;2023-12-22T05:58:58;7.02;;;4.30;;
23573;SDS011;11965;53.640;10.050;2023-12-22T06:01:23;8.16;;;4.90;;
23573;SDS011;11965;53.640;10.050;2023-12-22T06:03:50;7.76;;;4.67;;
23573;SDS011;11965;53.640;10.050;2023-12-22T06:06:19;7.62;;;4.54;;
23573;SDS011;11965;53.640;10.050;2023-12-22T06:08:46;8.00;;;4.77;;
23573;SDS011;11965;53.640;10.050;2023-12-22T06:11:13;6.86;;;4.14;;
23573;SDS011;11965;53.640;10.050;2023-12-22T06:13:40;6.40;;;3.93;;
23573;SDS011;11965;53.640;10.050;2023-12-22T06:16:10;6.91;;;4.27;;
23573;SDS011;11965;53.640;10.050;2023-12-22T06:18:38;6.90;;;4.22;;
23573;SDS011;11965;53.640;10.050;2023-12-22T06:21:05;6.40;;;3.97;;
23573;SDS011;11965;53.640;10.050;2023-12-22T06:23:33;7.84;;;4.89;;
23573;SDS011;11965;53.640;10.050;2023-12-22T06:26:01;7.65;;;4.76;;
23573;SDS011;11965;53.640;10.050;2023-12-22T06:28:28;7.04;;;4.39;;
23573;SDS011;11965;53.640;10.050;2023-12-22T06:30:55;7.24;;;4.55;;
23573;SDS011;11965;53.640;10.050;2023-12-22T06:33:22;7.72;;;4.86;;
23573;SDS011;11965;53.640;10.050;2023-12-22T06:35:49;8.10;;;5.06;;
23573;SDS011;11965;53.640;10.050;2023-12-22T06:38:18;8.72;;;5.44;;
23573;SDS011;11965;53.640;10.050;2023-12-22T06:40:47;9.61;;;5.92;;
23573;SDS011;11965;53.640;10.050;2023-12-22T06:43:14;9.07;;;5.57;;
23573;SDS011;11965;53.640;10.050;2023-12-22T06:45:41;9.13;;;5.59;;
23573;SDS011;11965;53.640;10.050;2023-12-22T06:48:08;10.73;;;6.41;;
23573;SDS011;11965;53.640;10.050;2023-12-22T06:50:35;10.18;;;6.06;;
23573;SDS011;11965;53.640;10.050;2023-12-22T06:53:04;12.13;;;7.34;;
23573;SDS011;11965;53.640;10.050;2023-12-22T06:55:32;10.42;;;6.40;;
23573;SDS011;11965;53.640;10.050;2023-12-22T06:58:01;11.71;;;7.10;;
23573;SDS011;11965;53.640;10.050;2023-12-22T07:00:29;10.71;;;6.59;;
23573;SDS011;11965;53.640;10.050;2023-12-22T07:02:56;11.72;;;7.07;;
23573;SDS011;11965;53.640;10.050;2023-12-22T07:05:30;11.91;;;7.17;;
23573;SDS011;11965;53.640;10.050;2023-12-22T07:08:04;13.68;;;8.20;;
23573;SDS011;11965;53.640;10.050;2023-12-22T07:10:32;12.86;;;7.74;;
23573;SDS011;11965;53.640;10.050;2023-12-22T07:13:01;13.22;;;8.04;;
23573;SDS011;11965;53.640;10.050;2023-12-22T07:15:28;12.17;;;7.51;;
23573;SDS011;11965;53.640;10.050;2023-12-22T07:17:54;12.49;;;7.78;;
23573;SDS011;11965;53.640;10.050;2023-12-22T07:20:21;12.79;;;7.91;;
23573;SDS011;11965;53.640;10.050;2023-12-22T07:22:48;14.38;;;8.85;;
23573;SDS011;11965;53.640;10.050;2023-12-22T07:25:16;14.00;;;8.56;;
23573;SDS011;11965;53.640;10.050;2023-12-22T07:27:45;15.16;;;9.12;;
23573;SDS011;11965;53.640;10.050;2023-12-22T07:30:14;16.30;;;9.74;;
23573;SDS011;11965;53.640;10.050;2023-12-22T07:32:45;14.39;;;8.82;;
23573;SDS011;11965;53.640;10.050;2023-12-22T07:35:14;14.42;;;8.85;;
23573;SDS011;11965;53.640;10.050;2023-12-22T07:37:41;14.68;;;8.97;;
23573;SDS011;11965;53.640;10.050;2023-12-22T07:40:09;14.61;;;8.83;;
23573;SDS011;11965;53.640;10.050;2023-12-22T07:42:36;14.39;;;8.82;;
23573;SDS011;11965;53.640;10.050;2023-12-22T07:45:04;14.59;;;8.88;;
23573;SDS011;11965;53.640;10.050;2023-12-22T07:47:34;14.80;;;9.08;;
23573;SDS011;11965;53.640;10.050;2023-12-22T07:50:01;13.22;;;8.18;;
23573;SDS011;11965;53.640;10.050;2023-12-22T07:52:28;13.84;;;8.60;;
23573;SDS011;11965;53.640;10.050;2023-12-22T07:54:55;12.88;;;7.97;;
23573;SDS011;11965;53.640;10.050;2023-12-22T07:57:22;13.42;;;8.30;;
23573;SDS011;11965;53.640;10.050;2023-12-22T07:59:49;12.68;;;7.84;;
23573;SDS011;11965;53.640;10.050;2023-12-22T08:02:16;12.49;;;7.63;;
23573;SDS011;11965;53.640;10.050;2023-12-22T08:04:44;14.00;;;8.59;;
23573;SDS011;11965;53.640;10.050;2023-12-22T08:07:11;13.56;;;8.32;;
23573;SDS011;11965;53.640;10.050;2023-12-22T08:09:38;12.14;;;7.31;;
23573;SDS011;11965;53.640;10.050;2023-12-22T08:12:05;11.23;;;6.86;;
23573;SDS011;11965;53.640;10.050;2023-12-22T08:14:33;10.27;;;6.33;;
23573;SDS011;11965;53.640;10.050;2023-12-22T08:17:00;9.88;;;6.09;;
23573;SDS011;11965;53.640;10.050;2023-12-22T08:19:27;9.29;;;5.82;;
23573;SDS011;11965;53.640;10.050;2023-12-22T08:21:55;9.48;;;5.85;;
23573;SDS011;11965;53.640;10.050;2023-12-22T08:24:22;9.83;;;5.97;;
23573;SDS011;11965;53.640;10.050;2023-12-22T08:26:49;9.44;;;5.74;;
23573;SDS011;11965;53.640;10.050;2023-12-22T08:29:16;8.90;;;5.40;;
23573;SDS011;11965;53.640;10.050;2023-12-22T08:31:44;9.23;;;5.60;;
23573;SDS011;11965;53.640;10.050;2023-12-22T08:34:11;9.15;;;5.69;;
23573;SDS011;11965;53.640;10.050;2023-12-22T08:36:38;8.81;;;5.54;;
23573;SDS011;11965;53.640;10.050;2023-12-22T08:39:06;9.80;;;6.07;;
23573;SDS011;11965;53.640;10.050;2023-12-22T08:41:33;10.73;;;6.60;;
23573;SDS011;11965;53.640;10.050;2023-12-22T08:44:02;10.55;;;6.43;;
23573;SDS011;11965;53.640;10.050;2023-12-22T08:46:29;10.79;;;6.65;;
23573;SDS011;11965;53.640;10.050;2023-12-22T08:48:57;10.65;;;6.59;;
23573;SDS011;11965;53.640;10.050;2023-12-22T08:51:24;10.07;;;6.44;;
23573;SDS011;11965;53.640;10.050;2023-12-22T08:53:52;9.50;;;6.01;;
23573;SDS011;11965;53.640;10.050;2023-12-22T08:56:21;10.29;;;6.39;;
23573;SDS011;11965;53.640;10.050;2023-12-22T08:58:50;10.87;;;6.79;;
23573;SDS011;11965;53.640;10.050;2023-12-22T09:01:20;11.45;;;6.95;;
23573;SDS011;11965;53.640;10.050;2023-12-22T09:03:48;11.78;;;7.11;;
23573;SDS011;11965;53.640;10.050;2023-12-22T09:06:15;10.60;;;6.41;;
23573;SDS011;11965;53.640;10.050;2023-12-22T09:08:43;10.89;;;6.55;;
23573;SDS011;11965;53.640;10.050;2023-12-22T09:11:11;9.67;;;5.84;;
23573;SDS011;11965;53.640;10.050;2023-12-22T09:13:41;8.82;;;5.31;;
23573;SDS011;11965;53.640;10.050;2023-12-22T09:16:08;7.61;;;4.66;;
23573;SDS011;11965;53.640;10.050;2023-12-22T09:18:35;7.70;;;4.75;;
23573;SDS011;11965;53.640;10.050;2023-12-22T09:21:03;7.76;;;4.87;;
23573;SDS011;11965;53.640;10.050;2023-12-22T09:23:30;6.36;;;4.04;;
23573;SDS011;11965;53.640;10.050;2023-12-22T09:25:57;6.53;;;4.23;;
23573;SDS011;11965;53.640;10.050;2023-12-22T09:28:24;6.50;;;4.17;;
23573;SDS011;11965;53.640;10.050;2023-12-22T09:30:53;6.66;;;4.23;;
23573;SDS011;11965;53.640;10.050;2023-12-22T09:33:20;7.30;;;4.62;;
23573;SDS011;11965;53.640;10.050;2023-12-22T09:35:48;8.16;;;5.08;;
23573;SDS011;11965;53.640;10.050;2023-12-22T09:38:16;8.32;;;5.07;;
23573;SDS011;11965;53.640;10.050;2023-12-22T09:40:43;8.43;;;5.10;;
23573;SDS011;11965;53.640;10.050;2023-12-22T09:43:10;8.16;;;4.95;;
23573;SDS011;11965;53.640;10.050;2023-12-22T09:45:41;8.80;;;5.37;;
23573;SDS011;11965;53.640;10.050;2023-12-22T09:48:10;8.68;;;5.35;;
23573;SDS011;11965;53.640;10.050;2023-12-22T09:50:42;9.50;;;5.74;;
23573;SDS011;11965;53.640;10.050;2023-12-22T09:53:10;8.86;;;5.25;;
23573;SDS011;11965;53.640;10.050;2023-12-22T09:55:40;9.34;;;5.66;;
23573;SDS011;11965;53.640;10.050;2023-12-22T09:58:11;8.91;;;5.45;;
23573;SDS011;11965;53.640;10.050;2023-12-22T10:00:40;10.48;;;6.40;;
23573;SDS011;11965;53.640;10.050;2023-12-22T10:03:10;9.57;;;5.85;;
23573;SDS011;11965;53.640;10.050;2023-12-22T10:05:39;10.06;;;6.17;;
23573;SDS011;11965;53.640;10.050;2023-12-22T10:08:06;8.94;;;5.45;;
23573;SDS011;11965;53.640;10.050;2023-12-22T10:10:38;8.88;;;5.46;;
23573;SDS011;11965;53.640;10.050;2023-12-22T10:13:06;9.12;;;5.62;;
23573;SDS011;11965;53.640;10.050;2023-12-22T10:15:36;10.29;;;6.30;;
23573;SDS011;11965;53.640;10.050;2023-12-22T10:18:06;9.98;;;6.10;;
23573;SDS011;11965;53.640;10.050;2023-12-22T10:20:35;10.59;;;6.44;;
23573;SDS011;11965;53.640;10.050;2023-12-22T10:23:03;10.29;;;6.33;;
23573;SDS011;11965;53.640;10.050;2023-12-22T10:25:31;10.40;;;6.50;;
23573;SDS011;11965;53.640;10.050;2023-12-22T10:27:58;11.51;;;7.11;;
23573;SDS011;11965;53.640;10.050;2023-12-22T10:30:25;9.18;;;5.78;;
23573;SDS011;11965;53.640;10.050;2023-12-22T10:32:54;9.58;;;5.97;;
23573;SDS011;11965;53.640;10.050;2023-12-22T10:35:21;9.78;;;6.07;;
23573;SDS011;11965;53.640;10.050;2023-12-22T10:37:50;10.67;;;6.52;;
23573;SDS011;11965;53.640;10.050;2023-12-22T10:40:18;10.22;;;6.30;;
23573;SDS011;11965;53.640;10.050;2023-12-22T10:42:46;9.51;;;5.88;;
23573;SDS011;11965;53.640;10.050;2023-12-22T10:45:14;10.87;;;6.60;;
23573;SDS011;11965;53.640;10.050;2023-12-22T10:47:42;10.57;;;6.27;;
23573;SDS011;11965;53.640;10.050;2023-12-22T10:50:11;10.01;;;6.02;;
23573;SDS011;11965;53.640;10.050;2023-12-22T10:52:39;10.13;;;6.11;;
23573;SDS011;11965;53.640;10.050;2023-12-22T10:55:08;9.97;;;5.97;;
23573;SDS011;11965;53.640;10.050;2023-12-22T10:57:36;9.14;;;5.58;;
23573;SDS011;11965;53.640;10.050;2023-12-22T11:00:04;8.62;;;5.33;;
23573;SDS011;11965;53.640;10.050;2023-12-22T11:02:34;9.73;;;6.02;;
23573;SDS011;11965;53.640;10.050;2023-12-22T11:05:07;8.88;;;5.45;;
23573;SDS011;11965;53.640;10.050;2023-12-22T11:07:37;11.36;;;6.90;;
23573;SDS011;11965;53.640;10.050;2023-12-22T11:10:09;10.41;;;6.30;;
23573;SDS011;11965;53.640;10.050;2023-12-22T11:12:39;11.13;;;6.58;;
23573;SDS011;11965;53.640;10.050;2023-12-22T11:15:10;11.31;;;6.84;;
23573;SDS011;11965;53.640;10.050;2023-12-22T11:17:39;9.73;;;5.90;;
23573;SDS011;11965;53.640;10.050;2023-12-22T11:20:09;10.00;;;6.04;;
23573;SDS011;11965;53.640;10.050;2023-12-22T11:22:36;8.37;;;5.16;;
23573;SDS011;11965;53.640;10.050;2023-12-22T11:25:06;7.41;;;4.73;;
23573;SDS011;11965;53.640;10.050;2023-12-22T11:27:37;8.19;;;5.23;;
23573;SDS011;11965;53.640;10.050;2023-12-22T11:30:05;7.55;;;4.84;;
23573;SDS011;11965;53.640;10.050;2023-12-22T11:32:34;9.03;;;5.76;;
23573;SDS011;11965;53.640;10.050;2023-12-22T11:35:01;9.40;;;5.87;;
23573;SDS011;11965;53.640;10.050;2023-12-22T11:37:28;9.33;;;5.84;;
23573;SDS011;11965;53.640;10.050;2023-12-22T11:39:58;9.11;;;5.73;;
23573;SDS011;11965;53.640;10.050;2023-12-22T11:42:28;9.46;;;5.92;;
23573;SDS011;11965;53.640;10.050;2023-12-22T11:45:02;9.31;;;5.82;;
23573;SDS011;11965;53.640;10.050;2023-12-22T11:47:29;9.07;;;5.53;;
23573;SDS011;11965;53.640;10.050;2023-12-22T11:49:56;10.11;;;6.16;;
23573;SDS011;11965;53.640;10.050;2023-12-22T11:52:25;9.42;;;5.72;;
23573;SDS011;11965;53.640;10.050;2023-12-22T11:54:54;9.31;;;5.70;;
23573;SDS011;11965;53.640;10.050;2023-12-22T11:57:33;8.82;;;5.43;;
23573;SDS011;11965;53.640;10.050;2023-12-22T12:00:03;10.50;;;6.47;;
23573;SDS011;11965;53.640;10.050;2023-12-22T12:02:39;8.86;;;5.59;;
23573;SDS011;11965;53.640;10.050;2023-12-22T12:05:08;8.95;;;5.60;;
23573;SDS011;11965;53.640;10.050;2023-12-22T12:07:39;9.73;;;6.00;;
23573;SDS011;11965;53.640;10.050;2023-12-22T12:10:10;9.98;;;6.05;;
23573;SDS011;11965;53.640;10.050;2023-12-22T12:12:39;10.41;;;6.31;;
23573;SDS011;11965;53.640;10.050;2023-12-22T12:15:07;10.38;;;6.41;;
23573;SDS011;11965;53.640;10.050;2023-12-22T12:17:40;9.38;;;5.87;;
23573;SDS011;11965;53.640;10.050;2023-12-22T12:20:09;10.00;;;6.13;;
23573;SDS011;11965;53.640;10.050;2023-12-22T12:22:37;10.46;;;6.32;;
23573;SDS011;11965;53.640;10.050;2023-12-22T12:25:07;9.81;;;5.99;;
23573;SDS011;11965;53.640;10.050;2023-12-22T12:27:36;9.56;;;5.88;;
23573;SDS011;11965;53.640;10.050;2023-12-22T12:30:08;10.24;;;6.23;;
23573;SDS011;11965;53.640;10.050;2023-12-22T12:32:39;9.91;;;6.21;;
23573;SDS011;11965;53.640;10.050;2023-12-22T12:35:08;8.73;;;5.50;;
23573;SDS011;11965;53.640;10.050;2023-12-22T12:37:35;8.02;;;5.00;;
23573;SDS011;11965;53.640;10.050;2023-12-22T12:40:03;9.09;;;5.58;;
23573;SDS011;11965;53.640;10.050;2023-12-22T12:42:35;12.08;;;7.94;;
23573;SDS011;11965;53.640;10.050;2023-12-22T12:45:04;9.67;;;7.09;;
23573;SDS011;11965;53.640;10.050;2023-12-22T12:47:33;9.07;;;7.13;;
23573;SDS011;11965;53.640;10.050;2023-12-22T12:50:00;6.93;;;5.89;;
23573;SDS011;11965;53.640;10.050;2023-12-22T12:52:27;5.59;;;4.62;;
23573;SDS011;11965;53.640;10.050;2023-12-22T12:54:54;5.15;;;3.95;;
23573;SDS011;11965;53.640;10.050;2023-12-22T12:57:23;4.98;;;3.67;;
23573;SDS011;11965;53.640;10.050;2023-12-22T12:59:51;7.16;;;5.53;;
23573;SDS011;11965;53.640;10.050;2023-12-22T13:02:18;9.37;;;8.50;;
23573;SDS011;11965;53.640;10.050;2023-12-22T13:04:47;5.65;;;5.48;;
23573;SDS011;11965;53.640;10.050;2023-12-22T13:07:14;2.84;;;2.60;;
23573;SDS011;11965;53.640;10.050;2023-12-22T13:09:50;5.24;;;4.55;;
23573;SDS011;11965;53.640;10.050;2023-12-22T13:12:18;6.45;;;5.89;;
23573;SDS011;11965;53.640;10.050;2023-12-22T13:14:44;8.95;;;8.77;;
23573;SDS011;11965;53.640;10.050;2023-12-22T13:17:11;6.11;;;6.02;;
23573;SDS011;11965;53.640;10.050;2023-12-22T13:19:39;6.55;;;6.23;;
23573;SDS011;11965;53.640;10.050;2023-12-22T13:22:07;8.09;;;7.70;;
23573;SDS011;11965;53.640;10.050;2023-12-22T13:24:35;6.72;;;6.35;;
23573;SDS011;11965;53.640;10.050;2023-12-22T13:27:03;4.80;;;4.37;;
23573;SDS011;11965;53.640;10.050;2023-12-22T13:29:41;5.23;;;4.36;;
23573;SDS011;11965;53.640;10.050;2023-12-22T13:32:14;5.69;;;4.49;;
23573;SDS011;11965;53.640;10.050;2023-12-22T13:34:46;5.39;;;4.16;;
23573;SDS011;11965;53.640;10.050;2023-12-22T13:37:17;5.17;;;3.98;;
23573;SDS011;11965;53.640;10.050;2023-12-22T13:39:44;5.54;;;4.14;;
23573;SDS011;11965;53.640;10.050;2023-12-22T13:42:15;7.43;;;5.64;;
23573;SDS011;11965;53.640;10.050;2023-12-22T13:44:46;8.19;;;6.52;;
23573;SDS011;11965;53.640;10.050;2023-12-22T13:47:14;7.74;;;6.42;;
23573;SDS011;11965;53.640;10.050;2023-12-22T13:49:42;8.20;;;7.19;;
23573;SDS011;11965;53.640;10.050;2023-12-22T13:54:53;9.67;;;9.10;;
23573;SDS011;11965;53.640;10.050;2023-12-22T13:57:22;10.73;;;10.37;;
23573;SDS011;11965;53.640;10.050;2023-12-22T13:59:49;5.50;;;5.23;;
23573;SDS011;11965;53.640;10.050;2023-12-22T14:02:19;5.92;;;5.56;;
23573;SDS011;11965;53.640;10.050;2023-12-22T14:04:48;6.33;;;5.80;;
23573;SDS011;11965;53.640;10.050;2023-12-22T14:07:16;6.59;;;5.56;;
23573;SDS011;11965;53.640;10.050;2023-12-22T14:09:44;6.23;;;4.98;;
23573;SDS011;11965;53.640;10.050;2023-12-22T14:12:11;5.86;;;4.61;;
23573;SDS011;11965;53.640;10.050;2023-12-22T14:14:38;6.27;;;4.55;;
23573;SDS011;11965;53.640;10.050;2023-12-22T14:17:05;8.06;;;5.84;;
23573;SDS011;11965;53.640;10.050;2023-12-22T14:19:32;7.25;;;5.20;;
23573;SDS011;11965;53.640;10.050;2023-12-22T14:21:59;8.32;;;5.84;;
23573;SDS011;11965;53.640;10.050;2023-12-22T14:24:26;8.01;;;5.49;;
23573;SDS011;11965;53.640;10.050;2023-12-22T14:26:54;7.51;;;5.11;;
23573;SDS011;11965;53.640;10.050;2023-12-22T14:29:22;8.88;;;6.05;;
23573;SDS011;11965;53.640;10.050;2023-12-22T14:31:49;8.23;;;5.89;;
23573;SDS011;11965;53.640;10.050;2023-12-22T14:34:17;7.46;;;5.71;;
23573;SDS011;11965;53.640;10.050;2023-12-22T14:36:44;5.47;;;4.07;;
23573;SDS011;11965;53.640;10.050;2023-12-22T14:39:11;6.36;;;4.50;;